Time;durP1;ratioP1;P1;durP2;ratioP2;P2;SDS_P1;SDS_P2;PMS_P1;PMS_P2;Temp;Humidity;BMP_temperature;BMP_pressure;BME280_temperature;BME280_humidity;BME280_pressure;Samples;Min_cycle;Max_cycle;Signal;HPM_P1;HPM_P2
2022/10/13 00:01:05;;;;;;;;;;;;;;;11.07;81.51;101874.00;5001855;28;19976;-67
2022/10/13 00:03:30;;;;;;;;;;;;;;;11.08;81.81;101879.28;5006935;28;19917;-67
2022/10/13 00:05:55;;;;;;;;;;;;;;;11.09;81.50;101873.25;5007841;28;19913;-67
2022/10/13 00:08:21;;;;;;;;;;;;;;;11.10;81.64;101869.78;5009882;28;19932;-67
2022/10/13 00:10:48;;;;;;;;;;;;;;;11.12;81.44;101872.47;5006925;28;20325;-67
2022/10/13 00:13:13;;;;;;;;;;;;;;;11.12;81.52;101875.97;5006964;28;19909;-67
2022/10/13 00:15:39;;;;;;;;;;;;;;;11.12;81.51;101873.38;5007189;28;19924;-67
2022/10/13 00:18:05;;;;;;;;;;;;;;;11.15;81.51;101867.34;5008688;28;19960;-67
2022/10/13 00:20:30;;;;;;;;;;;;;;;11.14;81.65;101866.47;5008650;28;19959;-67
2022/10/13 00:22:55;;;;;;;;;;;;;;;11.15;81.45;101856.91;5008414;28;19924;-67
2022/10/13 00:25:21;;;;;;;;;;;;;;;11.15;81.57;101856.91;5007773;28;19917;-67
2022/10/13 00:27:46;;;;;;;;;;;;;;;11.15;81.57;101856.91;5007233;28;19968;-67
2022/10/13 00:30:11;;;;;;;;;;;;;;;11.15;81.76;101854.31;5007690;28;20396;-67
2022/10/13 00:32:36;;;;;;;;;;;;;;;11.14;81.60;101857.78;5009343;28;20488;-67
2022/10/13 00:35:01;;;;;;;;;;;;;;;11.14;81.46;101845.59;5006042;28;20430;-67
2022/10/13 00:37:27;;;;;;;;;;;;;;;11.14;81.59;101858.66;5014012;28;20009;-67
2022/10/13 00:39:52;;;;;;;;;;;;;;;11.15;81.41;101851.69;5015342;28;19929;-67
2022/10/13 00:42:17;;;;;;;;;;;;;;;11.17;81.66;101854.41;5009300;28;19996;-67
2022/10/13 00:44:57;;;;;;;;;;;;;;;11.16;82.09;101856.09;5007253;28;19919;-67
2022/10/13 00:47:23;;;;;;;;;;;;;;;11.17;81.88;101849.19;5006086;28;19922;-65
2022/10/13 00:49:48;;;;;;;;;;;;;;;11.17;81.67;101847.44;5004319;28;19910;-65
2022/10/13 00:52:16;;;;;;;;;;;;;;;11.17;81.75;101846.56;5008662;28;19925;-65
2022/10/13 00:54:41;;;;;;;;;;;;;;;11.19;81.90;101852.72;5005320;28;19928;-65
2022/10/13 00:57:07;;;;;;;;;;;;;;;11.19;81.69;101847.50;5006353;28;19917;-65
2022/10/13 00:59:33;;;;;;;;;;;;;;;11.19;81.99;101842.28;5010976;28;19964;-65
2022/10/13 01:01:59;;;;;;;;;;;;;;;11.21;81.74;101845.81;5016715;28;20377;-65
2022/10/13 01:04:26;;;;;;;;;;;;;;;11.21;81.87;101849.34;4998698;28;19913;-65
2022/10/13 01:06:53;;;;;;;;;;;;;;;11.22;81.92;101852.81;5016650;28;20645;-65
2022/10/13 01:09:18;;;;;;;;;;;;;;;11.22;81.86;101845.00;5016568;28;20435;-65
2022/10/13 01:11:56;;;;;;;;;;;;;;;11.22;82.21;101842.41;5016569;28;19917;-65
2022/10/13 01:14:21;;;;;;;;;;;;;;;11.22;82.00;101845.88;5009065;28;19924;-65
2022/10/13 01:17:02;;;;;;;;;;;;;;;11.22;82.32;101843.28;5003495;28;19925;-67
2022/10/13 01:19:30;;;;;;;;;;;;;;;11.23;82.17;101841.56;5003365;28;19925;-67
2022/10/13 01:22:14;;;;;;;;;;;;;;;11.24;81.99;101844.22;5003594;28;19952;-67
2022/10/13 01:24:50;;;;;;;;;;;;;;;11.23;82.13;101839.84;5003624;28;19932;-67
2022/10/13 01:27:24;;;;;;;;;;;;;;;11.24;82.64;101841.63;5003507;28;20011;-67
2022/10/13 01:30:06;;;;;;;;;;;;;;;11.24;82.58;101841.63;5004080;28;20388;-67
2022/10/13 01:32:35;;;;;;;;;;;;;;;11.23;82.24;101837.22;5003529;28;19914;-67
2022/10/13 01:35:00;;;;;;;;;;;;;;;11.24;82.01;101846.84;5012305;28;19926;-67
2022/10/13 01:37:28;;;;;;;;;;;;;;;11.23;81.87;101850.28;5012990;28;20292;-67
2022/10/13 01:40:01;;;;;;;;;;;;;;;11.24;82.27;101840.72;5006889;28;20381;-67
2022/10/13 01:42:30;;;;;;;;;;;;;;;11.25;82.14;101838.19;5003701;28;20349;-67
2022/10/13 01:44:59;;;;;;;;;;;;;;;11.26;82.33;101832.13;5009128;28;19925;-67
2022/10/13 01:47:25;;;;;;;;;;;;;;;11.26;82.45;101828.63;5010729;28;19928;-67
2022/10/13 01:49:51;;;;;;;;;;;;;;;11.25;82.33;101835.59;5011231;28;19917;-67
2022/10/13 01:52:19;;;;;;;;;;;;;;;11.25;82.49;101826.84;5009476;28;19921;-67
2022/10/13 01:54:50;;;;;;;;;;;;;;;11.25;82.56;101835.59;5007432;28;19964;-67
2022/10/13 01:57:34;;;;;;;;;;;;;;;11.24;82.39;101825.97;5002534;28;19918;-67
2022/10/13 02:00:02;;;;;;;;;;;;;;;11.25;82.39;101822.53;5005716;28;19929;-67
2022/10/13 02:02:32;;;;;;;;;;;;;;;11.27;82.36;101825.19;5002697;28;19999;-67
2022/10/13 02:05:03;;;;;;;;;;;;;;;11.27;82.74;101810.44;5003084;28;20333;-67
2022/10/13 02:07:34;;;;;;;;;;;;;;;11.27;82.69;101815.66;5005395;28;19971;-67
2022/10/13 02:10:07;;;;;;;;;;;;;;;11.28;82.45;101809.59;5004297;28;19967;-67
2022/10/13 02:12:38;;;;;;;;;;;;;;;11.29;82.84;101808.75;5003204;28;19951;-67
2022/10/13 02:15:07;;;;;;;;;;;;;;;11.30;82.55;101810.53;5008926;28;20383;-67
2022/10/13 02:17:33;;;;;;;;;;;;;;;11.31;82.46;101806.19;5011392;28;19971;-69
2022/10/13 02:19:59;;;;;;;;;;;;;;;11.32;82.66;101802.75;5006804;28;20305;-69
2022/10/13 02:22:28;;;;;;;;;;;;;;;11.34;82.66;101808.03;5004892;28;19917;-69
2022/10/13 02:24:54;;;;;;;;;;;;;;;11.34;82.85;101794.97;5002510;28;19923;-69
2022/10/13 02:27:20;;;;;;;;;;;;;;;11.34;82.86;101788.06;5003042;28;20000;-67
2022/10/13 02:29:50;;;;;;;;;;;;;;;11.36;82.70;101788.13;5002491;28;19984;-67
2022/10/13 02:32:15;;;;;;;;;;;;;;;11.36;82.34;101789.00;5002275;28;19925;-67
2022/10/13 02:34:40;;;;;;;;;;;;;;;11.36;82.80;101785.50;5002046;28;19925;-67
2022/10/13 02:37:05;;;;;;;;;;;;;;;11.36;82.43;101783.78;5003565;28;20011;-67
2022/10/13 02:39:30;;;;;;;;;;;;;;;11.37;82.76;101784.66;5011017;28;20016;-67
2022/10/13 02:41:55;;;;;;;;;;;;;;;11.37;82.98;101796.00;5015422;28;19925;-67
2022/10/13 02:44:21;;;;;;;;;;;;;;;11.37;82.83;101785.56;5008042;28;19956;-67
2022/10/13 02:46:46;;;;;;;;;;;;;;;11.37;82.94;101782.94;5003519;28;20000;-67
2022/10/13 02:49:11;;;;;;;;;;;;;;;11.39;82.97;101789.09;5001855;28;19925;-67
2022/10/13 02:51:36;;;;;;;;;;;;;;;11.40;83.03;101779.56;5002569;28;20000;-67
2022/10/13 02:54:01;;;;;;;;;;;;;;;11.40;82.88;101783.06;5008383;28;19928;-67
2022/10/13 02:56:27;;;;;;;;;;;;;;;11.40;82.90;101780.44;5004429;28;20498;-69
2022/10/13 02:58:52;;;;;;;;;;;;;;;11.40;82.95;101775.22;5009369;28;19929;-69
2022/10/13 03:01:17;;;;;;;;;;;;;;;11.43;83.16;101774.44;5005239;28;20028;-69
2022/10/13 03:03:42;;;;;;;;;;;;;;;11.41;83.13;101770.88;5008369;28;20405;-69
2022/10/13 03:06:08;;;;;;;;;;;;;;;11.41;83.12;101782.22;5007095;28;19956;-69
2022/10/13 03:08:33;;;;;;;;;;;;;;;11.42;82.93;101772.66;5009590;28;19951;-69
2022/10/13 03:10:59;;;;;;;;;;;;;;;11.43;82.94;101771.84;5009995;28;19961;-69
2022/10/13 03:13:24;;;;;;;;;;;;;;;11.41;83.11;101761.34;5009112;28;19968;-69
2022/10/13 03:15:49;;;;;;;;;;;;;;;11.42;83.27;101763.09;4990822;28;20411;-69
2022/10/13 03:18:14;;;;;;;;;;;;;;;11.42;83.07;101762.22;5000375;28;19987;-69
2022/10/13 03:20:39;;;;;;;;;;;;;;;11.42;83.02;101759.63;5000379;28;20388;-69
2022/10/13 03:23:08;;;;;;;;;;;;;;;11.42;83.36;101743.97;4990528;28;19920;-69
2022/10/13 03:25:33;;;;;;;;;;;;;;;11.42;83.19;101760.50;5008971;28;19925;-69
2022/10/13 03:27:58;;;;;;;;;;;;;;;11.42;83.59;101754.41;5004724;28;19917;-67
2022/10/13 03:30:24;;;;;;;;;;;;;;;11.42;83.43;101757.88;5008519;28;19933;-67
2022/10/13 03:32:50;;;;;;;;;;;;;;;11.43;83.47;101748.34;4990920;28;19960;-67
2022/10/13 03:35:15;;;;;;;;;;;;;;;11.44;83.61;101752.72;5008810;28;19948;-67
2022/10/13 03:37:40;;;;;;;;;;;;;;;11.44;84.06;101755.31;5008928;28;19972;-67
2022/10/13 03:40:06;;;;;;;;;;;;;;;11.43;83.23;101737.91;5007755;28;19976;-67
2022/10/13 03:42:31;;;;;;;;;;;;;;;11.44;83.40;101742.28;5006019;28;20392;-67
2022/10/13 03:44:56;;;;;;;;;;;;;;;11.44;83.48;101742.28;5008721;28;19925;-67
2022/10/13 03:47:21;;;;;;;;;;;;;;;11.44;83.92;101748.41;5008545;28;20352;-67
2022/10/13 03:49:46;;;;;;;;;;;;;;;11.46;83.61;101743.25;5008012;28;19921;-67
2022/10/13 03:52:12;;;;;;;;;;;;;;;11.46;83.71;101738.03;5008641;28;19917;-67
2022/10/13 03:54:37;;;;;;;;;;;;;;;11.46;83.64;101738.91;5004601;28;20293;-67
2022/10/13 03:57:02;;;;;;;;;;;;;;;11.48;83.62;101736.34;5008201;28;20301;-67
2022/10/13 03:59:28;;;;;;;;;;;;;;;11.49;83.69;101727.69;5003305;28;20024;-67
2022/10/13 04:01:53;;;;;;;;;;;;;;;11.48;83.69;101721.59;5007241;28;19952;-67
2022/10/13 04:04:19;;;;;;;;;;;;;;;11.50;83.99;101716.41;5006246;28;19925;-67
2022/10/13 04:06:44;;;;;;;;;;;;;;;11.51;84.21;101709.47;5005889;28;20389;-67
2022/10/13 04:09:09;;;;;;;;;;;;;;;11.51;83.96;101715.56;5008978;28;20394;-67
2022/10/13 04:11:34;;;;;;;;;;;;;;;11.52;83.65;101716.47;5003516;28;19972;-67
2022/10/13 04:13:59;;;;;;;;;;;;;;;11.53;83.88;101716.50;5001498;28;20027;-67
2022/10/13 04:16:26;;;;;;;;;;;;;;;11.53;83.72;101708.69;5000342;28;19922;-67
2022/10/13 04:18:53;;;;;;;;;;;;;;;11.56;83.98;101718.34;5001254;28;20007;-67
2022/10/13 04:21:18;;;;;;;;;;;;;;;11.57;83.79;101720.09;5001350;28;19917;-67
2022/10/13 04:23:43;;;;;;;;;;;;;;;11.57;84.03;101721.00;5000313;28;19929;-67
2022/10/13 04:26:14;;;;;;;;;;;;;;;11.58;84.21;101694.03;5001526;28;20004;-67
2022/10/13 04:28:39;;;;;;;;;;;;;;;11.59;84.62;101700.19;5001166;28;19921;-67
2022/10/13 04:31:04;;;;;;;;;;;;;;;11.59;84.01;101695.81;5000496;28;19975;-67
2022/10/13 04:33:29;;;;;;;;;;;;;;;11.60;84.00;101695.00;5001014;28;20011;-67
2022/10/13 04:35:55;;;;;;;;;;;;;;;11.60;84.05;101691.47;5002829;28;20395;-68
2022/10/13 04:38:20;;;;;;;;;;;;;;;11.60;84.25;101692.41;4983333;28;19925;-67
2022/10/13 04:40:45;;;;;;;;;;;;;;;11.60;84.35;101695.00;4998750;28;19922;-67
2022/10/13 04:43:10;;;;;;;;;;;;;;;11.60;84.39;101702.84;4982656;28;19925;-67
2022/10/13 04:45:37;;;;;;;;;;;;;;;11.59;84.49;101694.94;5000811;28;20215;-67
2022/10/13 04:48:03;;;;;;;;;;;;;;;11.60;84.52;101692.41;5001085;28;19928;-67
2022/10/13 04:50:28;;;;;;;;;;;;;;;11.62;84.38;101690.69;5005842;28;19929;-67
2022/10/13 04:52:53;;;;;;;;;;;;;;;11.62;84.40;101687.22;5011200;28;19917;-67
2022/10/13 04:55:18;;;;;;;;;;;;;;;11.62;84.26;101687.22;5007403;28;20179;-67
2022/10/13 04:57:43;;;;;;;;;;;;;;;11.62;84.08;101703.75;5004098;28;20377;-67
2022/10/13 05:00:09;;;;;;;;;;;;;;;11.64;83.79;101707.31;5007602;28;19925;-67
2022/10/13 05:02:34;;;;;;;;;;;;;;;11.64;84.06;101704.72;5004712;28;19967;-67
2022/10/13 05:04:59;;;;;;;;;;;;;;;11.65;84.14;101692.53;5003986;28;20011;-67
2022/10/13 05:07:25;;;;;;;;;;;;;;;11.64;83.82;101690.75;5004317;28;19929;-67
2022/10/13 05:09:50;;;;;;;;;;;;;;;11.65;83.94;101682.97;5003825;28;20036;-67
2022/10/13 05:12:15;;;;;;;;;;;;;;;11.65;83.87;101680.34;5006844;28;20377;-67
2022/10/13 05:14:41;;;;;;;;;;;;;;;11.66;83.86;101695.19;5010882;28;20169;-67
2022/10/13 05:17:06;;;;;;;;;;;;;;;11.66;83.78;101689.09;5003692;28;19922;-67
2022/10/13 05:19:31;;;;;;;;;;;;;;;11.64;83.88;101689.06;5004415;28;19925;-67
2022/10/13 05:21:56;;;;;;;;;;;;;;;11.63;84.25;101689.88;5004113;28;20383;-67
2022/10/13 05:24:29;;;;;;;;;;;;;;;11.62;83.92;101695.94;5003590;28;19921;-67
2022/10/13 05:26:55;;;;;;;;;;;;;;;11.63;84.25;101695.09;5008505;28;19975;-67
2022/10/13 05:29:20;;;;;;;;;;;;;;;11.62;84.01;101698.53;5013143;28;20019;-68
2022/10/13 05:31:45;;;;;;;;;;;;;;;11.61;84.17;101698.50;5006847;28;19995;-67
2022/10/13 05:34:11;;;;;;;;;;;;;;;11.61;84.21;101698.50;5003622;28;19918;-67
2022/10/13 05:36:36;;;;;;;;;;;;;;;11.60;84.10;101710.66;5003584;28;19924;-67
2022/10/13 05:39:03;;;;;;;;;;;;;;;11.61;84.26;101706.31;5003025;28;19932;-67
2022/10/13 05:41:28;;;;;;;;;;;;;;;11.60;84.37;101695.00;5003354;28;19925;-67
2022/10/13 05:43:56;;;;;;;;;;;;;;;11.59;83.93;101694.94;5003299;28;20036;-67
2022/10/13 05:46:22;;;;;;;;;;;;;;;11.61;84.10;101701.97;5002521;28;19913;-67
2022/10/13 05:48:47;;;;;;;;;;;;;;;11.61;84.07;101696.75;5003476;28;19910;-67
2022/10/13 05:51:15;;;;;;;;;;;;;;;11.62;83.93;101687.22;5003429;28;20021;-67
2022/10/13 05:53:44;;;;;;;;;;;;;;;11.61;83.85;101695.88;5004424;28;20019;-67
2022/10/13 05:56:12;;;;;;;;;;;;;;;11.61;83.81;101691.53;5002166;28;19970;-67
2022/10/13 05:58:43;;;;;;;;;;;;;;;11.61;83.78;101691.53;5002862;28;19921;-67
2022/10/13 06:01:10;;;;;;;;;;;;;;;11.62;83.76;101697.66;5003253;28;19975;-67
2022/10/13 06:03:36;;;;;;;;;;;;;;;11.61;84.07;101694.16;5004054;28;19918;-67
2022/10/13 06:06:01;;;;;;;;;;;;;;;11.59;83.95;101698.44;5003632;28;21268;-67
2022/10/13 06:08:28;;;;;;;;;;;;;;;11.59;84.24;101698.44;4986089;28;20000;-67
2022/10/13 06:10:53;;;;;;;;;;;;;;;11.60;84.22;101692.41;5001676;28;19963;-67
2022/10/13 06:13:18;;;;;;;;;;;;;;;11.58;84.22;101686.22;5002792;28;19913;-68
2022/10/13 06:15:43;;;;;;;;;;;;;;;11.57;84.33;101681.84;5001966;28;19921;-67
2022/10/13 06:18:09;;;;;;;;;;;;;;;11.57;84.27;101679.25;5003504;28;19922;-67
2022/10/13 06:20:35;;;;;;;;;;;;;;;11.57;84.35;101676.63;5008258;28;19965;-67
2022/10/13 06:23:00;;;;;;;;;;;;;;;11.58;84.54;101673.16;5006772;28;20007;-67
2022/10/13 06:25:25;;;;;;;;;;;;;;;11.58;84.60;101669.69;5009643;28;20418;-67
2022/10/13 06:27:50;;;;;;;;;;;;;;;11.59;84.54;101661.91;5009084;28;20355;-67
2022/10/13 06:30:15;;;;;;;;;;;;;;;11.60;84.39;101666.28;5006496;28;19918;-67
2022/10/13 06:32:41;;;;;;;;;;;;;;;11.63;84.23;101673.34;5009328;28;19932;-67
2022/10/13 06:35:06;;;;;;;;;;;;;;;11.65;84.38;101682.09;5003668;28;19926;-68
2022/10/13 06:37:31;;;;;;;;;;;;;;;11.65;84.41;101677.75;5002391;28;19910;-69
2022/10/13 06:39:57;;;;;;;;;;;;;;;11.68;84.48;101681.31;4984894;28;20027;-70
2022/10/13 06:42:22;;;;;;;;;;;;;;;11.68;84.41;101670.88;5001900;28;20388;-69
2022/10/13 06:44:47;;;;;;;;;;;;;;;11.70;84.31;101669.19;5001746;28;20455;-69
2022/10/13 06:47:13;;;;;;;;;;;;;;;11.72;84.59;101676.22;5002508;28;20016;-69
2022/10/13 06:49:38;;;;;;;;;;;;;;;11.74;84.70;101671.06;5002662;28;19996;-69
2022/10/13 06:52:04;;;;;;;;;;;;;;;11.73;84.58;101670.19;5001498;28;20067;-70
2022/10/13 06:54:29;;;;;;;;;;;;;;;11.75;84.54;101678.06;4999724;28;20463;-70
2022/10/13 06:56:54;;;;;;;;;;;;;;;11.77;84.48;101676.38;5002424;28;19948;-69
2022/10/13 06:59:20;;;;;;;;;;;;;;;11.78;84.38;101670.31;5002127;28;20408;-69
2022/10/13 07:01:46;;;;;;;;;;;;;;;11.79;84.45;101665.16;5001514;28;20224;-69
2022/10/13 07:04:11;;;;;;;;;;;;;;;11.81;84.46;101671.28;5000508;28;19921;-69
2022/10/13 07:06:36;;;;;;;;;;;;;;;11.82;84.48;101685.25;4983875;28;19925;-69
2022/10/13 07:09:04;;;;;;;;;;;;;;;11.83;84.60;101663.50;4982266;28;19921;-69
2022/10/13 07:11:29;;;;;;;;;;;;;;;11.85;84.34;101669.69;5004435;28;19928;-69
2022/10/13 07:13:54;;;;;;;;;;;;;;;11.85;84.39;101664.47;5006764;28;19921;-69
2022/10/13 07:16:19;;;;;;;;;;;;;;;11.87;84.47;101672.34;5007852;28;19925;-69
2022/10/13 07:18:46;;;;;;;;;;;;;;;11.88;84.57;101676.75;5004163;28;20289;-70
2022/10/13 07:21:11;;;;;;;;;;;;;;;11.88;84.49;101674.13;5009541;28;19917;-69
2022/10/13 07:23:36;;;;;;;;;;;;;;;11.89;84.25;101684.63;4991089;28;19999;-69
2022/10/13 07:26:05;;;;;;;;;;;;;;;11.90;84.34;101686.38;5008177;28;19971;-69
2022/10/13 07:28:30;;;;;;;;;;;;;;;11.92;84.63;101682.09;5008486;28;19983;-69
2022/10/13 07:30:55;;;;;;;;;;;;;;;11.93;84.88;101681.28;4989811;28;20377;-69
2022/10/13 07:33:21;;;;;;;;;;;;;;;11.94;84.61;101676.97;5001259;28;19929;-70
2022/10/13 07:35:46;;;;;;;;;;;;;;;11.97;84.45;101677.91;5008784;28;19918;-70
2022/10/13 07:38:11;;;;;;;;;;;;;;;11.99;84.30;101677.97;5006023;28;20015;-67
2022/10/13 07:40:37;;;;;;;;;;;;;;;12.02;84.32;101690.25;5001032;28;20401;-68
2022/10/13 07:43:02;;;;;;;;;;;;;;;12.03;84.27;101690.28;5006846;28;19953;-68
2022/10/13 07:45:27;;;;;;;;;;;;;;;12.07;84.35;101686.06;5010334;28;19992;-68
2022/10/13 07:47:52;;;;;;;;;;;;;;;12.07;84.39;101673.88;5006993;28;19917;-68
2022/10/13 07:50:17;;;;;;;;;;;;;;;12.10;84.55;101667.88;5008967;28;19968;-68
2022/10/13 07:52:43;;;;;;;;;;;;;;;12.13;84.48;101675.78;5009891;28;19957;-68
2022/10/13 07:55:09;;;;;;;;;;;;;;;12.15;84.44;101671.50;5007882;28;20012;-67
2022/10/13 07:57:34;;;;;;;;;;;;;;;12.16;84.32;101675.88;5010159;28;19952;-67
2022/10/13 07:59:59;;;;;;;;;;;;;;;12.19;84.34;101683.81;5007563;28;19922;-67
2022/10/13 08:02:25;;;;;;;;;;;;;;;12.22;84.24;101686.50;5006467;28;19925;-67
2022/10/13 08:04:50;;;;;;;;;;;;;;;12.25;84.25;101678.78;5012547;28;19918;-67
2022/10/13 08:07:16;;;;;;;;;;;;;;;12.28;84.39;101685.81;5008236;28;20361;-67
2022/10/13 08:09:41;;;;;;;;;;;;;;;12.32;84.51;101682.47;5002319;28;19964;-68
2022/10/13 08:12:06;;;;;;;;;;;;;;;12.35;84.52;101683.44;5000178;28;19921;-69
2022/10/13 08:14:32;;;;;;;;;;;;;;;12.41;84.53;101682.75;5000268;28;20345;-68
2022/10/13 08:16:57;;;;;;;;;;;;;;;12.44;84.31;101676.69;5000105;28;19939;-69
2022/10/13 08:19:25;;;;;;;;;;;;;;;12.47;83.99;101671.56;5013931;28;21653;-69
2022/10/13 08:21:50;;;;;;;;;;;;;;;12.49;84.19;101673.38;5000335;28;19924;-69
2022/10/13 08:24:16;;;;;;;;;;;;;;;12.52;83.91;101672.59;5007199;28;19913;-70
2022/10/13 08:26:41;;;;;;;;;;;;;;;12.52;84.02;101668.25;5012014;28;20396;-68
2022/10/13 08:29:07;;;;;;;;;;;;;;;12.54;83.99;101673.50;5002839;28;19926;-69
2022/10/13 08:31:32;;;;;;;;;;;;;;;12.56;83.96;101666.63;5006614;28;19961;-69
2022/10/13 08:33:57;;;;;;;;;;;;;;;12.59;84.16;101661.47;5004938;28;20008;-69
2022/10/13 08:36:23;;;;;;;;;;;;;;;12.61;83.91;101666.75;5004827;28;19971;-69
2022/10/13 08:38:49;;;;;;;;;;;;;;;12.63;83.96;101652.88;5008760;28;19925;-69
2022/10/13 08:41:19;;;;;;;;;;;;;;;12.66;83.73;101657.31;5005329;28;19932;-68
2022/10/13 08:43:49;;;;;;;;;;;;;;;12.69;84.02;101666.13;5003573;28;19925;-68
2022/10/13 08:46:17;;;;;;;;;;;;;;;12.73;83.87;101664.50;5006462;28;19918;-69
2022/10/13 08:48:43;;;;;;;;;;;;;;;12.76;83.91;101658.44;5014054;28;19972;-70
2022/10/13 08:51:11;;;;;;;;;;;;;;;12.79;83.80;101663.75;5007615;28;20142;-70
2022/10/13 08:53:39;;;;;;;;;;;;;;;12.80;83.67;101662.91;5008219;28;19921;-69
2022/10/13 08:56:08;;;;;;;;;;;;;;;12.82;83.55;101659.50;4993280;28;19925;-71
2022/10/13 08:58:34;;;;;;;;;;;;;;;12.84;83.70;101654.31;5005293;28;19921;-72
2022/10/13 09:01:08;;;;;;;;;;;;;;;12.88;83.60;101654.44;5011789;28;19940;-72
2022/10/13 09:03:48;;;;;;;;;;;;;;;12.92;83.53;101654.50;5009884;28;19921;-72
2022/10/13 09:06:27;;;;;;;;;;;;;;;12.95;83.41;101644.16;5018791;28;20381;-72
2022/10/13 09:08:52;;;;;;;;;;;;;;;12.96;83.38;101646.81;5012354;28;19917;-71
2022/10/13 09:11:18;;;;;;;;;;;;;;;12.97;83.33;101643.31;4995064;28;19932;-72
2022/10/13 09:13:44;;;;;;;;;;;;;;;12.98;83.33;101639.88;5012583;28;20000;-71
2022/10/13 09:16:09;;;;;;;;;;;;;;;12.99;83.34;101644.28;5012828;28;19975;-72
2022/10/13 09:18:36;;;;;;;;;;;;;;;13.00;83.03;101648.63;5012286;28;19926;-67
2022/10/13 09:21:15;;;;;;;;;;;;;;;13.00;83.20;101648.63;5012095;28;20095;-67
2022/10/13 09:23:40;;;;;;;;;;;;;;;13.01;83.18;101652.16;5013485;28;20376;-67
2022/10/13 09:26:08;;;;;;;;;;;;;;;13.01;83.43;101655.66;5012043;28;19924;-67
2022/10/13 09:28:33;;;;;;;;;;;;;;;13.00;83.06;101647.75;4996353;28;20286;-67
2022/10/13 09:31:19;;;;;;;;;;;;;;;13.00;83.05;101640.78;5011120;28;19929;-67
2022/10/13 09:33:45;;;;;;;;;;;;;;;13.00;83.00;101638.16;5001152;28;19940;-67
2022/10/13 09:36:12;;;;;;;;;;;;;;;13.02;83.14;101640.81;4994548;28;20428;-67
2022/10/13 09:38:38;;;;;;;;;;;;;;;13.04;83.12;101634.78;5010990;28;19925;-67
2022/10/13 09:41:15;;;;;;;;;;;;;;;13.08;83.15;101640.09;5011961;28;19927;-68
2022/10/13 09:43:40;;;;;;;;;;;;;;;13.11;83.19;101629.75;5012090;28;20308;-67
2022/10/13 09:46:17;;;;;;;;;;;;;;;13.13;82.88;101633.28;5011909;28;19925;-67
2022/10/13 09:48:46;;;;;;;;;;;;;;;13.16;82.88;101635.97;5011963;28;19921;-67
2022/10/13 09:51:30;;;;;;;;;;;;;;;13.17;82.84;101633.38;5012248;28;19917;-67
2022/10/13 09:53:56;;;;;;;;;;;;;;;13.17;82.71;101633.38;5011747;28;19957;-67
2022/10/13 09:56:24;;;;;;;;;;;;;;;13.19;82.71;101633.41;5010100;28;19971;-71
2022/10/13 09:58:54;;;;;;;;;;;;;;;13.19;82.97;101641.28;5009511;28;19921;-72
2022/10/13 10:01:29;;;;;;;;;;;;;;;13.17;82.89;101630.75;5011950;28;19948;-72
2022/10/13 10:03:56;;;;;;;;;;;;;;;13.17;82.97;101632.50;5011774;28;20340;-72
2022/10/13 10:06:21;;;;;;;;;;;;;;;13.14;83.03;101635.06;5011219;28;19980;-72
2022/10/13 10:08:56;;;;;;;;;;;;;;;13.13;83.18;101628.03;5011543;28;19925;-72
2022/10/13 10:11:31;;;;;;;;;;;;;;;13.13;83.24;101622.81;5011463;28;20124;-71
2022/10/13 10:13:56;;;;;;;;;;;;;;;13.13;83.32;101628.03;5011456;28;19921;-71
2022/10/13 10:16:40;;;;;;;;;;;;;;;13.12;83.45;101623.63;5011670;28;19917;-71
2022/10/13 10:19:10;;;;;;;;;;;;;;;13.12;83.70;101623.63;5012892;28;20309;-71
2022/10/13 10:21:55;;;;;;;;;;;;;;;13.10;83.66;101620.13;5005628;28;19913;-71
2022/10/13 10:24:39;;;;;;;;;;;;;;;13.09;83.77;101621.81;5000291;28;19955;-71
2022/10/13 10:27:27;;;;;;;;;;;;;;;13.10;83.74;101622.72;5011222;28;20000;-67
2022/10/13 10:30:03;;;;;;;;;;;;;;;13.10;83.76;101620.13;5008842;28;20515;-67
2022/10/13 10:32:29;;;;;;;;;;;;;;;13.10;83.85;101615.75;5009126;28;20000;-68
2022/10/13 10:34:54;;;;;;;;;;;;;;;13.12;83.83;101615.78;5011954;28;20044;-67
2022/10/13 10:37:27;;;;;;;;;;;;;;;13.11;84.04;101616.66;5009581;28;19930;-68
2022/10/13 10:40:03;;;;;;;;;;;;;;;13.09;84.18;101615.72;5003376;28;20301;-69
2022/10/13 10:42:54;;;;;;;;;;;;;;;13.10;84.32;101617.50;5009687;28;19940;-69
2022/10/13 10:45:21;;;;;;;;;;;;;;;13.10;84.36;101615.75;5008029;28;20546;-69
2022/10/13 10:47:50;;;;;;;;;;;;;;;13.14;84.53;101615.00;5010743;28;19928;-69
2022/10/13 10:50:16;;;;;;;;;;;;;;;13.19;84.52;101608.16;5009137;28;19960;-69
2022/10/13 10:52:42;;;;;;;;;;;;;;;13.22;84.42;101613.47;5010507;28;20393;-69
2022/10/13 10:55:07;;;;;;;;;;;;;;;13.27;84.51;101617.94;5008666;28;19971;-69
2022/10/13 10:57:42;;;;;;;;;;;;;;;13.31;84.52;101618.03;5009735;28;19957;-73
2022/10/13 11:00:18;;;;;;;;;;;;;;;13.35;84.59;101612.06;5009443;28;19949;-73
2022/10/13 11:02:59;;;;;;;;;;;;;;;13.39;84.58;101610.41;5008156;28;19929;-73
2022/10/13 11:05:29;;;;;;;;;;;;;;;13.42;84.46;101606.97;5008875;28;19917;-73
2022/10/13 11:07:55;;;;;;;;;;;;;;;13.46;84.70;101601.84;4993193;28;19956;-73
2022/10/13 11:10:21;;;;;;;;;;;;;;;13.46;84.64;101594.00;5009626;28;20424;-73
2022/10/13 11:12:49;;;;;;;;;;;;;;;13.47;84.55;101600.09;5009817;28;19975;-73
2022/10/13 11:15:25;;;;;;;;;;;;;;;13.48;84.73;101596.63;4989978;28;20380;-73
2022/10/13 11:17:50;;;;;;;;;;;;;;;13.49;84.87;101595.81;5007482;28;20001;-73
2022/10/13 11:20:15;;;;;;;;;;;;;;;13.48;85.12;101592.28;5003375;28;20361;-73
2022/10/13 11:22:40;;;;;;;;;;;;;;;13.48;85.02;101589.66;5006961;28;19917;-74
2022/10/13 11:25:18;;;;;;;;;;;;;;;13.47;84.82;101593.16;5003020;28;20366;-73
2022/10/13 11:27:43;;;;;;;;;;;;;;;13.47;84.86;101587.00;5003581;28;19917;-73
2022/10/13 11:30:31;;;;;;;;;;;;;;;13.47;84.90;101592.25;5007274;28;19918;-73
2022/10/13 11:32:56;;;;;;;;;;;;;;;13.48;84.82;101589.66;5006082;28;20007;-74
2022/10/13 11:35:24;;;;;;;;;;;;;;;13.48;84.92;101584.44;5009728;28;20349;-73
2022/10/13 11:38:03;;;;;;;;;;;;;;;13.48;85.03;101573.09;5006420;28;19940;-74
2022/10/13 11:40:33;;;;;;;;;;;;;;;13.46;85.20;101578.28;4997481;28;19980;-73
2022/10/13 11:43:08;;;;;;;;;;;;;;;13.46;85.41;101570.44;5001119;28;19921;-73
2022/10/13 11:45:33;;;;;;;;;;;;;;;13.44;85.32;101569.53;5005870;28;19971;-73
2022/10/13 11:48:16;;;;;;;;;;;;;;;13.41;85.59;101565.94;5006207;28;20019;-73
2022/10/13 11:50:45;;;;;;;;;;;;;;;13.41;85.85;101576.41;5004558;28;19917;-73
2022/10/13 11:53:15;;;;;;;;;;;;;;;13.38;85.87;101572.88;5002904;28;19960;-73
2022/10/13 11:55:51;;;;;;;;;;;;;;;13.36;86.13;101568.44;5004205;28;20371;-73
2022/10/13 11:58:18;;;;;;;;;;;;;;;13.34;85.71;101572.75;5001662;28;20410;-73
2022/10/13 12:00:49;;;;;;;;;;;;;;;13.29;86.06;101556.91;5006324;28;19921;-72
2022/10/13 12:03:21;;;;;;;;;;;;;;;13.24;86.01;101561.16;5009316;28;19940;-71
2022/10/13 12:05:47;;;;;;;;;;;;;;;13.21;86.23;101563.69;5001637;28;20024;-71
2022/10/13 12:08:12;;;;;;;;;;;;;;;13.19;86.32;101560.16;5008876;28;20000;-71
2022/10/13 12:10:38;;;;;;;;;;;;;;;13.18;86.13;101553.16;5008694;28;19914;-71
2022/10/13 12:13:04;;;;;;;;;;;;;;;13.16;86.61;101554.84;5008839;28;19918;-71
2022/10/13 12:15:32;;;;;;;;;;;;;;;13.15;86.60;101558.28;5009502;28;19918;-71
2022/10/13 12:17:57;;;;;;;;;;;;;;;13.16;86.59;101550.47;5009657;28;19924;-71
2022/10/13 12:20:24;;;;;;;;;;;;;;;13.17;86.70;101552.25;5009458;28;19917;-71
2022/10/13 12:22:50;;;;;;;;;;;;;;;13.18;86.54;101550.56;5009380;28;20012;-71
2022/10/13 12:25:17;;;;;;;;;;;;;;;13.19;86.62;101552.28;5009276;28;19921;-71
2022/10/13 12:27:47;;;;;;;;;;;;;;;13.18;86.57;101547.94;5010671;28;19921;-71
2022/10/13 12:30:19;;;;;;;;;;;;;;;13.17;86.83;101554.88;5009042;28;19940;-71
2022/10/13 12:32:49;;;;;;;;;;;;;;;13.17;86.83;101551.38;5009846;28;19921;-71
2022/10/13 12:35:16;;;;;;;;;;;;;;;13.16;87.95;101549.59;5009136;28;19917;-71
2022/10/13 12:37:41;;;;;;;;;;;;;;;13.15;87.03;101545.22;5009756;28;19921;-71